createdAt,value
2018-12-18T00:04:47.309Z,37.58
2018-12-18T00:09:49.846Z,38.98
2018-12-18T00:14:53.154Z,37.40
2018-12-18T00:19:55.658Z,35.78
2018-12-18T00:24:58.135Z,34.70
2018-12-18T00:30:00.641Z,35.58
2018-12-18T00:35:03.158Z,33.43
2018-12-18T00:40:05.709Z,32.23
2018-12-18T00:45:08.221Z,31.23
2018-12-18T00:50:10.673Z,30.00
2018-12-18T00:55:13.413Z,29.27
2018-12-18T01:00:15.965Z,29.15
2018-12-18T01:05:18.493Z,27.13
2018-12-18T01:10:21.043Z,28.03
2018-12-18T01:15:23.581Z,26.97
2018-12-18T01:20:26.609Z,27.02
2018-12-18T01:25:29.083Z,25.68
2018-12-18T01:30:31.574Z,26.10
2018-12-18T01:35:34.069Z,26.47
2018-12-18T01:40:36.569Z,25.50
2018-12-18T01:45:39.017Z,24.52
2018-12-18T01:50:41.603Z,23.67
2018-12-18T01:55:44.144Z,23.50
2018-12-18T02:00:46.642Z,23.62
2018-12-18T02:05:49.390Z,23.67
2018-12-18T02:10:51.938Z,23.02
2018-12-18T02:15:54.527Z,23.12
2018-12-18T02:20:57.729Z,21.40
2018-12-18T02:26:00.851Z,22.48
2018-12-18T02:31:03.337Z,21.50
2018-12-18T02:36:05.822Z,21.27
2018-12-18T02:41:08.310Z,21.77
2018-12-18T02:46:11.534Z,21.15
2018-12-18T02:51:14.112Z,20.72
2018-12-18T02:56:16.619Z,19.87
2018-12-18T03:01:19.729Z,19.07
2018-12-18T03:06:22.226Z,19.73
2018-12-18T03:11:25.017Z,19.52
2018-12-18T03:16:27.510Z,18.80
2018-12-18T03:21:30.001Z,18.10
2018-12-18T03:26:32.458Z,17.25
2018-12-18T03:31:36.893Z,17.85
2018-12-18T03:36:39.524Z,17.02
2018-12-18T03:41:42.025Z,16.55
2018-12-18T03:46:44.517Z,16.85
2018-12-18T03:51:47.010Z,15.43
2018-12-18T03:56:49.704Z,16.30
2018-12-18T04:01:52.600Z,15.28
2018-12-18T04:06:55.716Z,14.87
2018-12-18T04:12:04.003Z,15.40
2018-12-18T04:17:06.490Z,15.10
2018-12-18T04:22:09.036Z,15.55
2018-12-18T04:27:12.140Z,14.78
2018-12-18T04:32:14.638Z,14.95
2018-12-18T04:37:17.291Z,14.67
2018-12-18T04:42:19.734Z,14.55
2018-12-18T04:47:22.330Z,14.07
2018-12-18T04:52:24.814Z,13.00
2018-12-18T04:57:27.309Z,12.00
2018-12-18T05:02:30.310Z,11.88
2018-12-18T05:07:33.429Z,12.60
2018-12-18T05:12:35.968Z,11.53
2018-12-18T05:17:38.410Z,11.55
2018-12-18T05:22:40.893Z,12.03
2018-12-18T05:27:43.901Z,11.90
2018-12-18T05:32:46.610Z,10.90
2018-12-18T05:37:49.057Z,11.12
2018-12-18T05:42:52.089Z,11.50
2018-12-18T05:47:54.588Z,11.28
2018-12-18T05:52:57.121Z,11.78
2018-12-18T05:57:59.584Z,10.90
2018-12-18T06:03:02.408Z,10.05
2018-12-18T06:08:04.861Z,10.72
2018-12-18T06:13:07.365Z,10.35
2018-12-18T06:18:09.813Z,10.82
2018-12-18T06:23:12.257Z,10.60
2018-12-18T06:28:14.749Z,9.83
2018-12-18T06:33:17.193Z,9.63
2018-12-18T06:38:19.641Z,10.28
2018-12-18T06:43:22.177Z,12.47
2018-12-18T06:48:25.692Z,9.90
2018-12-18T06:53:28.232Z,9.88
2018-12-18T06:58:30.717Z,10.73
2018-12-18T07:03:33.322Z,9.38
2018-12-18T07:08:35.773Z,9.15
2018-12-18T07:13:38.258Z,9.37
2018-12-18T07:18:40.747Z,8.73
2018-12-18T07:23:43.284Z,9.18
2018-12-18T07:28:45.780Z,9.15
2018-12-18T07:33:48.271Z,9.03
2018-12-18T07:38:53.022Z,9.90
2018-12-18T07:43:55.512Z,9.53
2018-12-18T07:48:57.995Z,9.93
2018-12-18T07:54:00.804Z,9.90
2018-12-18T07:59:03.241Z,8.60
2018-12-18T08:04:05.735Z,8.00
2018-12-18T08:09:08.284Z,8.73
2018-12-18T08:14:11.320Z,6.70
2018-12-18T08:19:14.101Z,7.37
2018-12-18T08:24:16.572Z,8.18
2018-12-18T08:29:19.989Z,7.20
2018-12-18T08:34:22.494Z,7.93
2018-12-18T08:39:24.961Z,7.22
2018-12-18T08:44:27.577Z,6.70
2018-12-18T08:49:30.798Z,6.77
2018-12-18T08:54:34.006Z,6.33
2018-12-18T08:59:36.493Z,6.90
2018-12-18T09:04:38.956Z,8.23
2018-12-18T09:09:41.445Z,7.22
2018-12-18T09:14:45.841Z,7.85
2018-12-18T09:19:48.298Z,6.70
2018-12-18T09:24:50.816Z,5.40
2018-12-18T09:29:53.294Z,5.22
2018-12-18T09:34:55.809Z,5.12
2018-12-18T09:39:58.777Z,7.12
2018-12-18T09:45:01.262Z,5.47
2018-12-18T09:50:04.817Z,4.30
2018-12-18T09:55:08.147Z,4.72
2018-12-18T10:00:11.325Z,4.50
2018-12-18T10:05:13.878Z,3.90
2018-12-18T10:10:16.409Z,4.58
2018-12-18T10:15:19.111Z,3.80
2018-12-18T10:20:21.613Z,4.00
2018-12-18T10:25:24.404Z,3.80
2018-12-18T10:30:26.955Z,3.75
2018-12-18T10:35:29.401Z,3.52
2018-12-18T10:40:31.886Z,3.22
2018-12-18T10:45:34.408Z,3.40
2018-12-18T10:50:37.007Z,3.50
2018-12-18T10:55:39.973Z,3.53
2018-12-18T11:00:48.110Z,3.10
2018-12-18T11:05:50.895Z,3.50
2018-12-18T11:10:53.389Z,3.20
2018-12-18T11:15:55.986Z,3.23
2018-12-18T11:20:58.821Z,3.25
2018-12-18T11:26:02.022Z,3.55
2018-12-18T11:31:04.608Z,3.30
2018-12-18T11:36:07.146Z,3.70
2018-12-18T11:41:09.684Z,3.70
2018-12-18T11:46:12.181Z,3.55
2018-12-18T11:51:15.396Z,4.45
2018-12-18T11:56:17.885Z,4.00
2018-12-18T12:01:20.782Z,3.90
2018-12-18T12:06:23.436Z,4.10
2018-12-18T12:11:25.973Z,4.25
2018-12-18T12:16:29.701Z,4.47
2018-12-18T12:21:32.200Z,3.75
2018-12-18T12:26:34.648Z,4.08
2018-12-18T12:31:37.950Z,3.92
2018-12-18T12:36:40.585Z,3.98
2018-12-18T12:41:43.094Z,3.77
2018-12-18T12:46:45.565Z,4.00
2018-12-18T12:51:48.747Z,4.08
2018-12-18T12:56:51.213Z,3.60
2018-12-18T13:01:53.692Z,3.30
2018-12-18T13:06:56.265Z,3.58
2018-12-18T13:11:58.852Z,2.95
2018-12-18T13:17:01.361Z,3.07
2018-12-18T13:22:03.902Z,2.75
2018-12-18T13:27:06.448Z,2.75
2018-12-18T13:32:08.991Z,2.55
2018-12-18T13:37:11.528Z,2.60
2018-12-18T13:42:14.795Z,2.83
2018-12-18T13:47:17.222Z,2.87
2018-12-18T13:52:20.097Z,3.00
2018-12-18T13:57:22.546Z,3.40
2018-12-18T14:02:25.117Z,2.80
2018-12-18T14:07:27.671Z,2.80
2018-12-18T14:12:30.217Z,2.33
2018-12-18T14:17:32.695Z,2.47
2018-12-18T14:22:35.196Z,2.45
2018-12-18T14:27:37.848Z,3.00
2018-12-18T14:32:40.281Z,2.47
2018-12-18T14:37:43.153Z,2.67
2018-12-18T14:42:45.612Z,2.50
2018-12-18T14:47:48.230Z,2.25
2018-12-18T14:52:50.786Z,2.83
2018-12-18T14:57:53.365Z,2.90
2018-12-18T15:02:56.017Z,2.90
2018-12-18T15:07:58.552Z,2.45
2018-12-18T15:13:01.251Z,2.55
2018-12-18T15:18:03.920Z,3.02
2018-12-18T15:23:06.449Z,2.90
2018-12-18T15:28:08.937Z,2.60
2018-12-18T15:33:11.690Z,2.70
2018-12-18T15:38:14.245Z,2.80
2018-12-18T15:43:16.789Z,3.00
2018-12-18T15:48:19.291Z,3.17
2018-12-18T15:53:21.741Z,4.40
2018-12-18T15:58:24.232Z,2.58
2018-12-18T16:03:26.721Z,2.80
2018-12-18T16:08:29.299Z,2.10
2018-12-18T16:13:31.824Z,2.47
2018-12-18T16:18:34.407Z,4.28
2018-12-18T16:23:36.905Z,3.05
2018-12-18T16:28:39.369Z,2.13
2018-12-18T16:33:41.817Z,3.37
2018-12-18T16:38:44.336Z,2.98
2018-12-18T16:43:46.827Z,2.37
2018-12-18T16:48:49.283Z,3.30
2018-12-18T16:53:51.737Z,2.83
2018-12-18T16:58:54.251Z,3.10
2018-12-18T17:03:56.698Z,3.60
2018-12-18T17:08:59.208Z,3.20
2018-12-18T17:14:02.448Z,3.00
2018-12-18T17:19:05.046Z,2.90
2018-12-18T17:24:07.538Z,3.70
2018-12-18T17:29:10.021Z,3.02
2018-12-18T17:34:12.488Z,3.15
2018-12-18T17:39:14.926Z,3.00
2018-12-18T17:44:17.412Z,3.55
2018-12-18T17:49:19.881Z,3.30
2018-12-18T17:54:22.361Z,3.30
2018-12-18T17:59:24.837Z,4.10
2018-12-18T18:04:27.369Z,3.30
2018-12-18T18:09:29.854Z,4.10
2018-12-18T18:14:32.392Z,4.35
2018-12-18T18:19:35.133Z,3.80
2018-12-18T18:24:37.702Z,3.72
2018-12-18T18:29:40.180Z,3.13
2018-12-18T18:34:42.641Z,4.10
2018-12-18T18:39:45.121Z,3.95
2018-12-18T18:44:47.676Z,3.52
2018-12-18T18:49:50.124Z,3.52
2018-12-18T18:54:52.609Z,3.63
2018-12-18T18:59:55.239Z,3.30
2018-12-18T19:04:57.677Z,4.10
2018-12-18T19:10:00.133Z,3.85
2018-12-18T19:15:02.825Z,3.70
2018-12-18T19:20:05.677Z,3.90
2018-12-18T19:25:08.256Z,3.57
2018-12-18T19:30:10.812Z,4.25
2018-12-18T19:35:13.350Z,4.23
2018-12-18T19:40:16.141Z,4.47
2018-12-18T19:45:18.642Z,4.50
2018-12-18T19:50:21.537Z,4.80
2018-12-18T19:55:23.996Z,5.60
2018-12-18T20:00:26.484Z,5.50
2018-12-18T20:05:28.981Z,6.00
2018-12-18T20:10:31.433Z,5.95
2018-12-18T20:15:33.964Z,6.00
2018-12-18T20:20:36.512Z,5.97
2018-12-18T20:25:39.061Z,5.40
2018-12-18T20:30:41.593Z,6.75
2018-12-18T20:35:44.095Z,6.60
2018-12-18T20:40:46.840Z,7.05
2018-12-18T20:45:49.483Z,6.83
2018-12-18T20:50:52.129Z,6.40
2018-12-18T20:55:54.833Z,6.73
2018-12-18T21:00:57.566Z,6.67
2018-12-18T21:06:00.181Z,6.27
2018-12-18T21:11:02.698Z,6.45
2018-12-18T21:16:05.482Z,6.60
2018-12-18T21:21:07.960Z,6.65
2018-12-18T21:26:10.499Z,5.37
2018-12-18T21:31:13.091Z,5.33
2018-12-18T21:36:15.658Z,6.05
2018-12-18T21:41:18.234Z,5.20
2018-12-18T21:46:20.829Z,5.78
2018-12-18T21:51:23.321Z,5.45
2018-12-18T21:56:25.817Z,5.47
2018-12-18T22:01:28.313Z,5.25
2018-12-18T22:06:30.777Z,5.65
2018-12-18T22:11:33.294Z,5.20
2018-12-18T22:16:35.789Z,5.33
2018-12-18T22:21:38.702Z,5.10
2018-12-18T22:26:41.164Z,5.70
2018-12-18T22:31:43.669Z,4.60
2018-12-18T22:36:46.924Z,4.60
2018-12-18T22:41:49.412Z,4.45
2018-12-18T22:46:51.974Z,4.60
2018-12-18T22:51:54.527Z,4.90
2018-12-18T22:56:57.069Z,4.43
2018-12-18T23:02:01.745Z,4.50
2018-12-18T23:07:04.362Z,4.30
2018-12-18T23:12:06.898Z,4.20
2018-12-18T23:17:09.493Z,4.12
2018-12-18T23:22:11.994Z,4.35
2018-12-18T23:27:14.473Z,3.92
2018-12-18T23:32:17.077Z,4.10
2018-12-18T23:37:19.570Z,3.92
2018-12-18T23:42:22.165Z,3.03
2018-12-18T23:47:25.065Z,3.58
2018-12-18T23:52:27.525Z,3.72
2018-12-18T23:57:30.048Z,3.52
